Time;durP1;ratioP1;P1;durP2;ratioP2;P2;SDS_P1;SDS_P2;PMS_P1;PMS_P2;Temp;Humidity;BMP_temperature;BMP_pressure;BME280_temperature;BME280_humidity;BME280_pressure;Samples;Min_cycle;Max_cycle;Signal;HPM_P1;HPM_P2
2023/07/09 00:00:15;;;;;;;10.98;8.30;;;26.10;93.20;;;;;;4996517;28;20058;-85
2023/07/09 00:02:41;;;;;;;13.35;8.82;;;26.10;93.20;;;;;;5013817;28;20037;-86
2023/07/09 00:05:12;;;;;;;12.07;8.57;;;26.00;93.40;;;;;;4979975;28;20053;-87
2023/07/09 00:07:39;;;;;;;13.43;9.13;;;26.00;93.30;;;;;;4995595;28;20132;-86
2023/07/09 00:10:16;;;;;;;15.30;9.32;;;25.90;93.30;;;;;;4964114;28;20453;-86
2023/07/09 00:12:42;;;;;;;13.75;9.05;;;25.90;93.40;;;;;;5013653;28;20054;-86
2023/07/09 00:15:10;;;;;;;12.05;8.38;;;25.90;93.40;;;;;;4996115;28;20026;-86
2023/07/09 00:17:36;;;;;;;15.27;9.55;;;25.80;93.60;;;;;;4980107;28;20141;-86
2023/07/09 00:20:13;;;;;;;12.70;8.90;;;25.80;93.80;;;;;;4998889;28;20109;-86
2023/07/09 00:22:39;;;;;;;12.35;8.73;;;25.80;93.80;;;;;;4999693;28;20053;-86
2023/07/09 00:25:05;;;;;;;13.43;8.55;;;25.70;94.00;;;;;;4999584;28;20037;-87
2023/07/09 00:27:31;;;;;;;13.50;9.00;;;25.70;94.00;;;;;;4999757;28;20057;-86
2023/07/09 00:29:57;;;;;;;11.25;8.43;;;25.70;94.10;;;;;;4968117;28;20061;-91
2023/07/09 00:32:24;;;;;;;13.63;8.55;;;25.70;94.20;;;;;;4984339;28;20508;-92
2023/07/09 00:34:53;;;;;;;15.85;9.10;;;25.70;94.40;;;;;;4968586;28;20477;-86
2023/07/09 00:37:25;;;;;;;14.75;9.68;;;25.70;94.50;;;;;;5017434;28;20030;-86
2023/07/09 00:39:51;;;;;;;13.40;8.85;;;25.60;94.50;;;;;;5017175;28;20022;-86
2023/07/09 00:42:20;;;;;;;16.42;8.00;;;25.60;94.60;;;;;;4999001;28;20037;-86
2023/07/09 00:44:49;;;;;;;11.18;8.07;;;25.60;94.70;;;;;;4999174;28;20026;-86
2023/07/09 00:47:23;;;;;;;13.30;9.55;;;25.50;94.70;;;;;;4998810;28;20044;-86
2023/07/09 00:49:53;;;;;;;17.42;9.00;;;25.50;94.80;;;;;;4999223;28;20410;-86
2023/07/09 00:52:22;;;;;;;12.30;8.60;;;25.50;94.90;;;;;;4999385;28;20022;-90
2023/07/09 00:54:51;;;;;;;12.02;8.57;;;25.50;95.00;;;;;;4999769;28;20026;-90
2023/07/09 00:57:21;;;;;;;13.43;9.02;;;25.50;95.10;;;;;;4999726;28;20388;-90
2023/07/09 00:59:51;;;;;;;13.55;9.30;;;25.50;95.20;;;;;;5017415;28;20029;-89
2023/07/09 01:02:22;;;;;;;13.73;8.68;;;25.40;95.20;;;;;;4999385;28;20084;-89
2023/07/09 01:04:49;;;;;;;14.65;8.82;;;25.40;95.20;;;;;;4999718;28;20025;-89
2023/07/09 01:07:16;;;;;;;13.50;8.20;;;25.40;95.30;;;;;;4983150;28;20050;-89
2023/07/09 01:09:42;;;;;;;12.95;8.68;;;25.40;95.50;;;;;;4982827;28;20022;-86
2023/07/09 01:12:10;;;;;;;12.82;8.65;;;25.30;95.50;;;;;;4998748;28;20022;-86
2023/07/09 01:14:37;;;;;;;13.32;9.10;;;25.30;95.70;;;;;;4966630;28;20037;-86
2023/07/09 01:17:07;;;;;;;14.52;9.02;;;25.30;95.80;;;;;;4982403;28;20045;-86
2023/07/09 01:19:43;;;;;;;15.82;9.00;;;25.30;95.80;;;;;;5016327;28;20381;-86
2023/07/09 01:22:20;;;;;;;11.57;8.25;;;25.30;95.90;;;;;;4982555;28;20026;-86
2023/07/09 01:25:01;;;;;;;13.00;9.63;;;25.20;96.00;;;;;;4998708;28;20029;-86
2023/07/09 01:27:39;;;;;;;14.25;9.07;;;25.30;96.20;;;;;;4998412;28;20029;-86
2023/07/09 01:30:14;;;;;;;12.05;9.30;;;25.20;96.10;;;;;;4998275;28;20026;-86
2023/07/09 01:32:45;;;;;;;14.15;8.60;;;25.20;96.30;;;;;;4998428;28;20105;-86
2023/07/09 01:35:13;;;;;;;13.07;8.35;;;25.10;96.30;;;;;;4998760;28;20050;-86
2023/07/09 01:37:39;;;;;;;11.18;8.23;;;25.10;96.40;;;;;;4982246;28;20060;-86
2023/07/09 01:40:09;;;;;;;13.40;9.50;;;25.10;96.50;;;;;;4981893;28;20034;-86
2023/07/09 01:42:35;;;;;;;14.30;9.90;;;25.10;96.60;;;;;;4998595;28;20029;-86
2023/07/09 01:45:03;;;;;;;15.27;9.32;;;25.10;96.60;;;;;;4982023;28;20030;-86
2023/07/09 01:47:29;;;;;;;14.27;10.07;;;25.00;96.60;;;;;;4982278;28;20030;-86
2023/07/09 01:49:59;;;;;;;16.92;10.10;;;25.00;96.50;;;;;;4981854;28;20551;-86
2023/07/09 01:52:27;;;;;;;13.40;10.15;;;25.00;96.60;;;;;;4998247;28;20404;-86
2023/07/09 01:54:53;;;;;;;14.88;10.13;;;24.90;96.50;;;;;;4997978;28;20021;-86
2023/07/09 01:57:23;;;;;;;12.35;9.00;;;24.80;96.60;;;;;;4998617;28;20029;-86
2023/07/09 01:59:57;;;;;;;14.30;9.40;;;24.80;96.60;;;;;;5015577;28;20048;-86
2023/07/09 02:02:25;;;;;;;12.63;8.82;;;24.80;96.80;;;;;;4981796;28;20061;-86
2023/07/09 02:04:55;;;;;;;13.18;9.27;;;24.70;96.90;;;;;;5015516;28;20046;-87
2023/07/09 02:07:23;;;;;;;16.52;9.25;;;24.70;97.10;;;;;;4997498;28;20050;-86
2023/07/09 02:09:49;;;;;;;14.55;9.35;;;24.70;97.20;;;;;;5015370;28;20052;-86
2023/07/09 02:12:15;;;;;;;11.98;9.48;;;24.60;97.30;;;;;;4997829;28;20449;-86
2023/07/09 02:14:42;;;;;;;13.65;9.07;;;24.60;97.40;;;;;;4997965;28;20121;-89
2023/07/09 02:17:09;;;;;;;12.88;9.30;;;24.60;97.60;;;;;;4997972;28;20022;-89
2023/07/09 02:19:35;;;;;;;12.00;9.23;;;24.60;97.60;;;;;;4982326;28;20034;-91
2023/07/09 02:22:01;;;;;;;13.98;8.88;;;24.50;97.70;;;;;;4982769;28;20053;-92
2023/07/09 02:24:27;;;;;;;10.73;8.57;;;24.50;97.70;;;;;;4965897;28;20034;-86
2023/07/09 02:26:58;;;;;;;11.82;8.75;;;24.50;97.80;;;;;;4981629;28;20497;-86
2023/07/09 02:29:25;;;;;;;13.05;9.00;;;24.50;97.90;;;;;;4981436;28;20033;-86
2023/07/09 02:31:52;;;;;;;13.63;9.57;;;24.50;98.00;;;;;;4997784;28;20473;-86
2023/07/09 02:34:18;;;;;;;15.63;9.43;;;24.50;98.10;;;;;;4981318;28;20030;-86
2023/07/09 02:36:44;;;;;;;15.65;9.10;;;24.50;98.20;;;;;;4981033;28;20117;-86
2023/07/09 02:39:12;;;;;;;14.88;9.52;;;24.40;98.20;;;;;;4981439;28;20054;-87
2023/07/09 02:41:39;;;;;;;12.68;9.75;;;24.40;98.30;;;;;;5014311;28;20477;-87
2023/07/09 02:44:05;;;;;;;15.30;9.73;;;24.40;98.40;;;;;;4997360;28;20076;-87
2023/07/09 02:46:31;;;;;;;11.55;8.73;;;24.30;98.50;;;;;;4981218;28;20026;-87
2023/07/09 02:48:57;;;;;;;12.90;9.27;;;24.30;98.60;;;;;;4981533;28;20080;-91
2023/07/09 02:51:24;;;;;;;14.98;10.07;;;24.30;98.60;;;;;;4966196;28;20022;-91
2023/07/09 02:53:50;;;;;;;13.73;9.90;;;24.30;98.70;;;;;;4998116;28;20048;-92
2023/07/09 02:56:15;;;;;;;14.23;10.13;;;24.30;98.80;;;;;;4982139;28;20025;-92
2023/07/09 02:58:41;;;;;;;12.13;9.38;;;24.20;98.90;;;;;;4982307;28;20029;-91
2023/07/09 03:01:06;;;;;;;15.35;10.75;;;24.20;98.90;;;;;;4983050;28;20049;-91
2023/07/09 03:03:32;;;;;;;15.38;9.80;;;24.20;99.00;;;;;;4966997;28;20385;-91
2023/07/09 03:05:58;;;;;;;16.20;9.77;;;24.20;99.20;;;;;;4965591;28;20014;-86
2023/07/09 03:08:23;;;;;;;12.98;9.90;;;24.10;99.20;;;;;;4980228;28;20361;-87
2023/07/09 03:10:49;;;;;;;13.77;9.45;;;24.10;99.40;;;;;;4980429;28;20033;-87
2023/07/09 03:13:15;;;;;;;14.55;9.50;;;24.10;99.40;;;;;;4996552;28;20052;-86
2023/07/09 03:15:41;;;;;;;12.90;9.45;;;24.10;99.50;;;;;;4980521;28;20029;-87
2023/07/09 03:18:06;;;;;;;13.60;9.70;;;24.10;99.70;;;;;;4996443;28;20032;-87
2023/07/09 03:20:32;;;;;;;16.63;9.13;;;24.10;99.80;;;;;;4980230;28;20485;-86
2023/07/09 03:22:57;;;;;;;11.35;9.10;;;24.00;99.80;;;;;;4996542;28;20038;-86
2023/07/09 03:25:23;;;;;;;12.80;9.18;;;24.00;99.80;;;;;;4980309;28;20029;-86
2023/07/09 03:27:49;;;;;;;14.07;9.10;;;24.00;99.80;;;;;;4964019;28;20473;-86
2023/07/09 03:30:15;;;;;;;13.40;9.77;;;23.90;99.90;;;;;;4980072;28;20029;-87
2023/07/09 03:32:40;;;;;;;17.75;9.20;;;23.90;99.90;;;;;;4964038;28;20025;-86
2023/07/09 03:35:07;;;;;;;12.60;9.15;;;23.80;99.90;;;;;;5013790;28;20026;-87
2023/07/09 03:37:32;;;;;;;11.30;8.82;;;23.80;99.90;;;;;;4980077;28;20022;-87
2023/07/09 03:39:58;;;;;;;14.30;8.90;;;23.70;99.90;;;;;;4997440;28;20037;-91
2023/07/09 03:42:24;;;;;;;13.35;9.10;;;23.70;99.90;;;;;;4965455;28;20053;-91
2023/07/09 03:44:49;;;;;;;13.52;9.57;;;23.70;99.90;;;;;;4980956;28;20041;-86
2023/07/09 03:47:16;;;;;;;10.68;8.55;;;23.70;99.90;;;;;;4996094;28;20487;-86
2023/07/09 03:49:41;;;;;;;11.85;9.25;;;23.70;99.90;;;;;;4964105;28;20493;-86
2023/07/09 03:52:07;;;;;;;13.15;9.50;;;23.70;99.90;;;;;;4964170;28;20026;-86
2023/07/09 03:54:33;;;;;;;14.13;9.35;;;23.70;99.90;;;;;;4983814;28;20400;-89
2023/07/09 03:56:59;;;;;;;16.35;9.52;;;23.60;99.90;;;;;;4985013;28;20026;-90
2023/07/09 03:59:24;;;;;;;14.65;10.02;;;23.60;99.90;;;;;;4984764;28;20033;-89
2023/07/09 04:01:50;;;;;;;12.35;9.45;;;23.60;99.90;;;;;;4968632;28;20030;-89
2023/07/09 04:04:20;;;;;;;14.48;9.80;;;23.60;99.90;;;;;;4984672;28;20485;-90
2023/07/09 04:06:48;;;;;;;11.90;8.45;;;23.60;99.90;;;;;;4969679;28;20037;-90
2023/07/09 04:09:14;;;;;;;12.07;8.45;;;23.60;99.90;;;;;;5001836;28;20034;-89
2023/07/09 04:11:39;;;;;;;11.80;8.55;;;23.60;99.90;;;;;;4984938;28;20030;-86
2023/07/09 04:14:07;;;;;;;11.02;8.80;;;23.60;99.90;;;;;;4967477;28;20121;-86
2023/07/09 04:16:32;;;;;;;15.18;10.88;;;23.60;99.90;;;;;;5000312;28;20034;-86
2023/07/09 04:18:58;;;;;;;14.73;10.50;;;23.60;99.90;;;;;;4983956;28;20032;-87
2023/07/09 04:21:23;;;;;;;17.30;11.93;;;23.60;99.90;;;;;;5000168;28;20504;-90
2023/07/09 04:23:49;;;;;;;17.42;11.70;;;23.60;99.90;;;;;;4984372;28;20026;-89
2023/07/09 04:26:15;;;;;;;15.13;12.07;;;23.60;99.90;;;;;;4968051;28;20030;-90
2023/07/09 04:28:40;;;;;;;18.40;12.55;;;23.60;99.90;;;;;;4984298;28;20018;-90
2023/07/09 04:31:06;;;;;;;15.05;12.15;;;23.60;99.90;;;;;;4984097;28;20084;-90
2023/07/09 04:33:32;;;;;;;15.80;11.30;;;23.60;99.90;;;;;;4984199;28;20376;-90
2023/07/09 04:35:57;;;;;;;15.10;11.48;;;23.60;99.90;;;;;;5000468;28;20076;-90
2023/07/09 04:38:23;;;;;;;16.55;12.02;;;23.60;99.90;;;;;;4999911;28;20393;-89
2023/07/09 04:40:49;;;;;;;14.35;11.35;;;23.70;99.90;;;;;;5000082;28;20025;-89
2023/07/09 04:43:15;;;;;;;14.07;11.77;;;23.70;99.90;;;;;;4983994;28;20034;-90
2023/07/09 04:45:41;;;;;;;15.85;11.90;;;23.70;99.90;;;;;;5000041;28;20099;-91
2023/07/09 04:48:07;;;;;;;19.00;12.35;;;23.70;99.90;;;;;;4984239;28;20025;-92
2023/07/09 04:50:33;;;;;;;17.50;12.23;;;23.70;99.90;;;;;;4983729;28;20057;-92
2023/07/09 04:53:00;;;;;;;16.10;12.55;;;23.70;99.90;;;;;;5000058;28;20021;-92
2023/07/09 04:55:26;;;;;;;14.20;11.13;;;23.70;99.90;;;;;;5000135;28;20034;-93
2023/07/09 04:57:52;;;;;;;17.77;11.63;;;23.60;99.90;;;;;;4968320;28;20057;-92
2023/07/09 05:00:17;;;;;;;15.70;11.40;;;23.60;99.90;;;;;;4967979;28;20022;-92
2023/07/09 05:02:45;;;;;;;16.15;12.48;;;23.70;99.90;;;;;;4984340;28;20049;-92
2023/07/09 05:05:11;;;;;;;15.77;12.23;;;23.70;99.90;;;;;;4999374;28;20096;-92
2023/07/09 05:07:38;;;;;;;17.05;10.95;;;23.70;99.90;;;;;;5000063;28;20046;-92
2023/07/09 05:10:05;;;;;;;17.15;11.50;;;23.70;99.90;;;;;;4983869;28;20076;-92
2023/07/09 05:12:31;;;;;;;16.33;11.43;;;23.70;99.90;;;;;;4984122;28;20061;-91
2023/07/09 05:14:57;;;;;;;14.50;12.05;;;23.70;99.90;;;;;;5000335;28;20109;-92
2023/07/09 05:17:23;;;;;;;18.30;11.57;;;23.70;99.90;;;;;;4967586;28;20052;-91
2023/07/09 05:19:52;;;;;;;17.95;11.85;;;23.70;99.90;;;;;;4983933;28;20070;-92
2023/07/09 05:22:18;;;;;;;15.52;11.00;;;23.80;99.90;;;;;;4999842;28;20077;-92
2023/07/09 05:24:43;;;;;;;16.88;11.82;;;23.80;99.90;;;;;;4967272;28;20033;-89
2023/07/09 05:27:09;;;;;;;15.48;11.50;;;23.80;99.90;;;;;;4966855;28;20029;-89
2023/07/09 05:29:35;;;;;;;19.17;12.10;;;23.80;99.90;;;;;;4982987;28;20128;-90
2023/07/09 05:32:00;;;;;;;17.88;12.75;;;23.80;99.90;;;;;;4966910;28;20049;-90
2023/07/09 05:34:26;;;;;;;15.48;11.52;;;23.80;99.90;;;;;;5016718;28;20033;-90
2023/07/09 05:36:52;;;;;;;19.02;11.70;;;23.90;99.90;;;;;;4968544;28;20156;-91
2023/07/09 05:39:17;;;;;;;16.88;11.70;;;23.90;99.90;;;;;;4969041;28;20037;-92
2023/07/09 05:41:43;;;;;;;16.83;12.30;;;23.90;99.90;;;;;;4969134;28;20037;-91
2023/07/09 05:44:09;;;;;;;14.27;11.50;;;23.90;99.90;;;;;;4993399;28;20037;-91
2023/07/09 05:46:36;;;;;;;14.88;11.40;;;24.00;99.90;;;;;;5009801;28;20050;-91
2023/07/09 05:49:09;;;;;;;16.65;11.48;;;24.00;99.90;;;;;;4990397;28;20066;-91
2023/07/09 05:51:34;;;;;;;17.38;12.80;;;24.00;99.90;;;;;;4999555;28;20033;-87
2023/07/09 05:54:00;;;;;;;17.25;12.13;;;24.10;99.90;;;;;;4965950;28;20030;-87
2023/07/09 05:56:26;;;;;;;15.88;11.90;;;24.10;99.90;;;;;;4982338;28;20025;-87
2023/07/09 05:58:52;;;;;;;15.50;11.27;;;24.10;99.90;;;;;;4965875;28;20030;-86
2023/07/09 06:01:20;;;;;;;16.17;11.30;;;24.20;99.90;;;;;;4962816;28;20022;-87
2023/07/09 06:03:46;;;;;;;14.82;10.80;;;24.20;99.90;;;;;;4962987;28;20109;-86
2023/07/09 06:06:12;;;;;;;17.48;10.90;;;24.20;99.90;;;;;;4963186;28;20390;-87
2023/07/09 06:08:38;;;;;;;15.77;11.30;;;24.20;99.90;;;;;;4994902;28;20109;-92
2023/07/09 06:11:04;;;;;;;13.63;10.45;;;24.20;99.90;;;;;;4966031;28;20426;-91
2023/07/09 06:13:30;;;;;;;16.10;10.15;;;24.30;99.90;;;;;;4963064;28;20023;-91
2023/07/09 06:15:57;;;;;;;16.75;10.27;;;24.30;99.90;;;;;;4946079;28;20085;-91
2023/07/09 06:18:24;;;;;;;13.95;10.45;;;24.30;99.90;;;;;;4979030;28;20441;-92
2023/07/09 06:20:52;;;;;;;15.55;9.88;;;24.40;99.90;;;;;;4962880;28;20026;-92
2023/07/09 06:23:19;;;;;;;15.65;11.63;;;24.40;99.90;;;;;;4979247;28;20026;-92
2023/07/09 06:25:47;;;;;;;16.98;11.63;;;24.50;99.90;;;;;;4980067;28;20041;-89
2023/07/09 06:28:18;;;;;;;16.85;11.73;;;24.50;99.90;;;;;;4965234;28;20132;-90
2023/07/09 06:30:45;;;;;;;19.35;12.10;;;24.50;99.90;;;;;;4981735;28;20029;-90
2023/07/09 06:33:13;;;;;;;17.88;11.77;;;24.50;99.90;;;;;;4980712;28;20030;-90
2023/07/09 06:35:39;;;;;;;15.75;12.15;;;24.60;99.90;;;;;;4964686;28;20049;-89
2023/07/09 06:38:06;;;;;;;16.52;10.90;;;24.60;99.90;;;;;;4980306;28;20485;-89
2023/07/09 06:40:31;;;;;;;14.35;9.85;;;24.60;99.90;;;;;;4980477;28;20022;-89
2023/07/09 06:42:57;;;;;;;14.93;10.20;;;24.60;99.90;;;;;;4947168;28;20374;-91
2023/07/09 06:45:24;;;;;;;15.02;10.77;;;24.70;99.90;;;;;;4962505;28;20030;-92
2023/07/09 06:47:50;;;;;;;15.75;10.88;;;24.80;99.90;;;;;;4978577;28;20150;-92
2023/07/09 06:50:16;;;;;;;14.80;10.50;;;24.80;99.90;;;;;;4946793;28;20047;-92
2023/07/09 06:52:41;;;;;;;15.75;10.00;;;24.80;99.90;;;;;;4951876;28;20037;-91
2023/07/09 06:55:07;;;;;;;12.63;9.82;;;24.90;99.90;;;;;;4965665;28;20037;-92
2023/07/09 06:57:34;;;;;;;14.45;9.95;;;24.90;99.90;;;;;;4997874;28;20034;-92
2023/07/09 06:59:59;;;;;;;14.60;9.88;;;25.00;99.90;;;;;;4996764;28;20370;-87
2023/07/09 07:02:25;;;;;;;18.15;10.27;;;25.10;99.90;;;;;;4980943;28;20061;-87
2023/07/09 07:04:51;;;;;;;16.33;9.77;;;25.10;99.90;;;;;;4965634;28;20121;-86
2023/07/09 07:07:17;;;;;;;14.65;10.73;;;25.10;99.90;;;;;;4964162;28;20136;-87
2023/07/09 07:09:42;;;;;;;17.48;10.75;;;25.10;99.90;;;;;;4996628;28;20034;-87
2023/07/09 07:12:08;;;;;;;15.63;10.57;;;25.20;99.90;;;;;;4996699;28;20025;-86
2023/07/09 07:14:34;;;;;;;13.63;9.77;;;25.30;99.90;;;;;;4996851;28;20042;-86
2023/07/09 07:16:59;;;;;;;13.52;10.18;;;25.30;99.90;;;;;;4980429;28;20036;-86
2023/07/09 07:19:26;;;;;;;14.43;9.90;;;25.40;99.90;;;;;;4980486;28;20439;-86
2023/07/09 07:21:53;;;;;;;14.30;9.55;;;25.40;99.90;;;;;;5014314;28;20037;-86
2023/07/09 07:24:18;;;;;;;15.48;9.82;;;25.50;99.90;;;;;;4980505;28;20420;-87
2023/07/09 07:26:44;;;;;;;16.73;9.60;;;25.50;99.90;;;;;;4997248;28;20033;-86
2023/07/09 07:29:09;;;;;;;12.52;9.80;;;25.60;99.90;;;;;;4980746;28;20022;-87
2023/07/09 07:31:35;;;;;;;14.20;9.70;;;25.60;99.90;;;;;;4981022;28;20087;-87
2023/07/09 07:34:01;;;;;;;11.95;9.30;;;25.70;99.90;;;;;;4980412;28;20030;-86
2023/07/09 07:36:26;;;;;;;14.32;9.23;;;25.70;99.90;;;;;;5014885;28;20095;-87
2023/07/09 07:38:52;;;;;;;12.65;8.52;;;25.80;99.90;;;;;;5000079;28;20030;-87
2023/07/09 07:41:18;;;;;;;14.57;8.80;;;25.80;99.90;;;;;;4997229;28;20576;-87
2023/07/09 07:43:43;;;;;;;13.82;9.48;;;25.80;99.90;;;;;;4981013;28;20389;-87
2023/07/09 07:46:09;;;;;;;13.48;8.05;;;25.90;99.90;;;;;;4981483;28;20416;-87
2023/07/09 07:48:35;;;;;;;12.25;8.18;;;25.90;99.90;;;;;;4980879;28;20197;-91
2023/07/09 07:51:04;;;;;;;13.30;8.52;;;26.00;99.90;;;;;;4998591;28;20026;-91
2023/07/09 07:53:32;;;;;;;14.52;8.93;;;26.10;99.90;;;;;;4998892;28;20044;-91
2023/07/09 07:55:58;;;;;;;20.15;8.93;;;26.10;99.90;;;;;;4998476;28;20033;-91
2023/07/09 07:58:24;;;;;;;14.23;8.50;;;26.10;99.90;;;;;;4981273;28;20097;-91
2023/07/09 08:00:54;;;;;;;11.82;8.38;;;26.20;99.90;;;;;;4980857;28;20413;-92
2023/07/09 08:03:19;;;;;;;18.53;8.67;;;26.30;99.90;;;;;;4981024;28;20040;-86
2023/07/09 08:05:49;;;;;;;11.13;8.02;;;26.30;99.90;;;;;;4979723;28;20842;-86
2023/07/09 08:08:15;;;;;;;11.63;8.30;;;26.40;99.90;;;;;;4995826;28;20076;-86
2023/07/09 08:10:41;;;;;;;12.05;8.23;;;26.40;99.90;;;;;;4996212;28;20034;-87
2023/07/09 08:13:07;;;;;;;11.75;7.93;;;26.50;99.90;;;;;;4980119;28;20366;-87
2023/07/09 08:15:34;;;;;;;11.32;8.13;;;26.50;99.90;;;;;;4980092;28;20041;-87
2023/07/09 08:18:00;;;;;;;11.63;7.88;;;26.60;99.90;;;;;;4997426;28;20369;-87
2023/07/09 08:20:25;;;;;;;10.68;7.32;;;26.60;99.90;;;;;;4979991;28;20034;-87
2023/07/09 08:22:51;;;;;;;11.52;7.97;;;26.60;99.90;;;;;;4980073;28;20026;-87
2023/07/09 08:25:17;;;;;;;10.90;7.85;;;26.70;99.90;;;;;;4996350;28;20042;-86
2023/07/09 08:27:43;;;;;;;13.82;8.02;;;26.70;99.90;;;;;;4979811;28;20029;-87
2023/07/09 08:30:09;;;;;;;13.07;8.55;;;26.70;99.90;;;;;;4979678;28;20121;-86
2023/07/09 08:32:34;;;;;;;14.55;8.57;;;26.80;99.90;;;;;;4979715;28;20162;-87
2023/07/09 08:35:00;;;;;;;14.57;8.10;;;26.90;99.90;;;;;;4980631;28;20054;-92
2023/07/09 08:37:26;;;;;;;10.32;7.22;;;26.90;99.90;;;;;;4980826;28;20053;-91
2023/07/09 08:39:51;;;;;;;13.68;8.18;;;27.00;99.90;;;;;;4985434;28;20058;-91
2023/07/09 08:42:28;;;;;;;12.90;8.43;;;27.00;99.90;;;;;;4985967;28;20030;-87
2023/07/09 08:45:07;;;;;;;11.95;8.45;;;27.00;99.90;;;;;;5000261;28;20026;-91
2023/07/09 08:48:13;;;;;;;11.82;8.77;;;27.10;99.90;;;;;;5001287;28;20036;-92
2023/07/09 08:50:43;;;;;;;15.38;8.60;;;27.20;99.90;;;;;;5000683;28;20030;-92
2023/07/09 08:53:21;;;;;;;10.35;8.10;;;27.20;99.90;;;;;;5001833;28;20014;-91
2023/07/09 08:55:50;;;;;;;12.23;8.73;;;27.30;99.90;;;;;;5000661;28;20505;-87
2023/07/09 08:58:28;;;;;;;13.73;8.63;;;27.30;99.90;;;;;;4999514;28;20077;-87
2023/07/09 09:01:00;;;;;;;12.35;8.75;;;27.40;99.90;;;;;;5016873;28;20033;-88
2023/07/09 09:03:27;;;;;;;13.93;8.20;;;27.40;99.90;;;;;;4999370;28;20084;-88
2023/07/09 09:05:53;;;;;;;11.77;7.75;;;27.50;99.90;;;;;;5016711;28;20026;-87
2023/07/09 09:08:44;;;;;;;11.50;7.82;;;27.50;99.90;;;;;;4982728;28;20107;-87
2023/07/09 09:11:25;;;;;;;10.30;7.45;;;27.60;99.90;;;;;;4982925;28;20045;-87
2023/07/09 09:13:54;;;;;;;12.48;8.10;;;27.60;99.90;;;;;;4999076;28;20477;-87
2023/07/09 09:16:34;;;;;;;12.55;8.07;;;27.60;99.90;;;;;;4998893;28;20026;-87
2023/07/09 09:19:01;;;;;;;10.40;7.57;;;27.70;99.90;;;;;;4999379;28;20022;-86
2023/07/09 09:21:37;;;;;;;13.25;7.55;;;27.70;99.90;;;;;;4998673;28;20045;-86
2023/07/09 09:25:04;;;;;;;10.65;7.60;;;27.80;99.90;;;;;;5016869;28;20461;-88
2023/07/09 09:27:29;;;;;;;12.98;7.75;;;27.90;99.90;;;;;;4935026;29;20044;-93
2023/07/09 09:29:55;;;;;;;12.27;8.05;;;27.90;99.90;;;;;;4922591;29;20028;-92
2023/07/09 09:32:27;;;;;;;9.43;7.07;;;28.00;99.90;;;;;;4954704;28;20041;-92
2023/07/09 09:34:54;;;;;;;15.35;8.48;;;28.00;99.90;;;;;;5000202;28;20428;-94
2023/07/09 09:37:31;;;;;;;14.95;8.13;;;28.10;99.90;;;;;;4983505;28;20083;-92
2023/07/09 09:39:59;;;;;;;14.82;7.63;;;28.20;99.90;;;;;;4983521;28;20057;-93
2023/07/09 09:42:25;;;;;;;14.82;8.98;;;28.20;99.90;;;;;;4999918;28;20113;-93
2023/07/09 09:44:54;;;;;;;11.52;7.63;;;28.30;99.90;;;;;;4983624;28;20421;-87
2023/07/09 09:47:20;;;;;;;16.25;8.35;;;28.30;99.90;;;;;;4981949;28;20032;-88
2023/07/09 09:49:46;;;;;;;11.95;7.03;;;28.40;99.90;;;;;;5015835;28;20033;-88
2023/07/09 09:52:17;;;;;;;10.93;7.20;;;28.40;99.90;;;;;;4981896;28;20030;-88
2023/07/09 09:54:53;;;;;;;13.52;7.63;;;28.50;99.90;;;;;;5004421;28;20086;-92
2023/07/09 09:57:24;;;;;;;10.18;6.68;;;28.60;99.90;;;;;;5000877;28;20034;-93
2023/07/09 09:59:49;;;;;;;;;;;28.60;99.90;;;;;;4983883;28;20057;-92
2023/07/09 10:02:21;;;;;;;11.88;7.55;;;28.70;99.90;;;;;;4982967;28;19913;-88
2023/07/09 10:04:47;;;;;;;12.15;7.10;;;28.80;99.90;;;;;;4997993;28;20069;-88
2023/07/09 10:07:34;;;;;;;8.30;5.72;;;28.80;99.90;;;;;;4981999;28;20057;-88
2023/07/09 10:10:01;;;;;;;11.38;6.78;;;28.90;99.90;;;;;;4978432;28;20064;-88
2023/07/09 10:12:41;;;;;;;11.27;6.57;;;28.90;99.90;;;;;;4967170;28;20030;-89
2023/07/09 10:15:36;;;;;;;11.60;6.80;;;29.00;99.90;;;;;;4982769;28;20022;-88
2023/07/09 10:18:33;;;;;;;9.73;6.65;;;29.10;99.90;;;;;;4981728;28;20030;-87
2023/07/09 10:21:14;;;;;;;15.88;6.60;;;29.20;99.90;;;;;;4978675;28;20030;-88
2023/07/09 10:23:47;;;;;;;11.30;6.60;;;29.20;99.70;;;;;;4978311;28;20026;-88
2023/07/09 10:26:34;;;;;;;10.70;6.25;;;29.30;99.70;;;;;;4978693;28;20487;-87
2023/07/09 10:29:41;;;;;;;9.30;6.13;;;29.40;99.50;;;;;;4978050;28;20031;-87
2023/07/09 10:32:38;;;;;;;9.07;5.97;;;29.50;97.50;;;;;;4961405;28;20125;-87
2023/07/09 10:35:37;;;;;;;13.60;11.20;;;29.50;98.20;;;;;;4977881;28;20158;-87
2023/07/09 10:38:21;;;;;;;10.33;6.80;;;29.60;98.40;;;;;;4958941;28;20066;-88
2023/07/09 10:40:55;;;;;;;10.63;6.72;;;29.70;98.70;;;;;;4958711;28;20026;-87
2023/07/09 10:43:43;;;;;;;10.45;6.90;;;29.80;98.30;;;;;;4974938;28;20061;-88
2023/07/09 10:46:20;;;;;;;12.50;6.28;;;29.90;97.90;;;;;;4948165;28;20155;-87
2023/07/09 10:48:52;;;;;;;11.48;6.50;;;29.90;97.40;;;;;;4958291;28;20130;-87
2023/07/09 10:51:26;;;;;;;11.18;6.50;;;29.90;97.50;;;;;;4959075;28;20023;-87
2023/07/09 10:54:12;;;;;;;10.10;6.18;;;30.00;97.60;;;;;;4962316;28;20098;-87
2023/07/09 10:56:39;;;;;;;9.48;6.10;;;30.10;97.60;;;;;;4963962;28;20023;-88
2023/07/09 10:59:22;;;;;;;11.77;6.47;;;30.20;97.50;;;;;;4959498;28;20023;-88
2023/07/09 11:01:53;;;;;;;11.43;6.40;;;30.20;97.40;;;;;;4961728;28;20019;-89
2023/07/09 11:04:33;;;;;;;10.38;6.05;;;30.30;97.60;;;;;;4962668;28;20462;-88
2023/07/09 11:07:06;;;;;;;10.63;6.05;;;30.40;97.70;;;;;;4960923;28;20382;-88
2023/07/09 11:09:46;;;;;;;8.13;6.13;;;30.40;97.60;;;;;;4976601;28;20053;-88
2023/07/09 11:12:22;;;;;;;10.35;6.05;;;30.40;97.40;;;;;;4977289;28;20113;-87
2023/07/09 11:14:56;;;;;;;8.52;5.72;;;30.50;97.00;;;;;;4977466;28;20373;-88
2023/07/09 11:17:22;;;;;;;11.00;5.68;;;30.50;96.60;;;;;;4977274;28;20080;-87
2023/07/09 11:19:55;;;;;;;8.10;5.95;;;30.60;96.40;;;;;;4977360;28;20109;-88
2023/07/09 11:22:23;;;;;;;8.68;5.72;;;30.70;96.50;;;;;;4977238;28;20177;-87
2023/07/09 11:25:05;;;;;;;10.32;5.95;;;30.70;96.70;;;;;;4978369;28;20054;-89
2023/07/09 11:27:31;;;;;;;11.18;6.65;;;30.70;95.60;;;;;;4977729;28;20025;-88
2023/07/09 11:30:25;;;;;;;10.27;6.18;;;30.80;95.50;;;;;;4977908;28;20022;-92
2023/07/09 11:33:02;;;;;;;10.10;5.72;;;30.80;95.40;;;;;;4970905;28;20062;-91
2023/07/09 11:35:40;;;;;;;7.65;5.43;;;30.90;95.70;;;;;;4978431;28;20469;-91
2023/07/09 11:38:17;;;;;;;8.10;5.32;;;30.90;96.00;;;;;;4978558;28;20030;-91
2023/07/09 11:41:01;;;;;;;7.82;5.55;;;30.90;95.30;;;;;;4978925;28;20390;-91
2023/07/09 11:43:47;;;;;;;11.75;6.10;;;31.00;94.90;;;;;;4964584;28;20058;-92
2023/07/09 11:46:23;;;;;;;9.00;5.15;;;31.00;94.20;;;;;;4963947;28;20126;-92
2023/07/09 11:48:50;;;;;;;8.82;5.22;;;31.00;94.30;;;;;;4978242;28;20030;-92
2023/07/09 11:51:58;;;;;;;10.00;6.25;;;31.10;93.70;;;;;;4962998;28;20041;-92
2023/07/09 11:54:24;;;;;;;11.00;5.65;;;31.10;93.10;;;;;;4946504;28;20031;-92
2023/07/09 11:56:57;;;;;;;9.50;5.53;;;31.10;92.90;;;;;;4962217;28;20037;-92
2023/07/09 11:59:23;;;;;;;8.98;5.32;;;31.20;93.10;;;;;;4979117;28;20018;-88
2023/07/09 12:01:54;;;;;;;8.65;5.90;;;31.20;93.40;;;;;;4982307;28;20039;-88
2023/07/09 12:04:23;;;;;;;9.25;5.45;;;31.30;93.60;;;;;;4981249;28;20031;-89
2023/07/09 12:06:52;;;;;;;8.45;6.18;;;31.30;93.70;;;;;;4980658;28;20105;-87
2023/07/09 12:09:21;;;;;;;11.05;5.93;;;31.30;93.50;;;;;;4980808;28;20106;-89
2023/07/09 12:11:49;;;;;;;8.88;5.85;;;31.30;92.60;;;;;;4980670;28;20026;-89
2023/07/09 12:14:20;;;;;;;9.50;5.63;;;31.40;92.70;;;;;;4980726;28;20027;-88
2023/07/09 12:16:55;;;;;;;11.02;5.55;;;31.40;92.60;;;;;;4982506;28;20492;-92
2023/07/09 12:19:23;;;;;;;10.52;5.60;;;31.40;92.80;;;;;;4950895;28;20019;-93
2023/07/09 12:21:53;;;;;;;16.45;5.50;;;31.40;93.10;;;;;;4985782;28;20029;-93
2023/07/09 12:24:21;;;;;;;;;;;31.50;93.10;;;;;;5003086;28;20041;-92
2023/07/09 12:26:52;;;;;;;9.43;5.03;;;31.40;92.70;;;;;;5006649;28;19913;-88
2023/07/09 12:29:18;;;;;;;10.20;5.53;;;31.40;92.00;;;;;;4983965;28;20068;-89
2023/07/09 12:31:44;;;;;;;7.57;5.32;;;31.40;92.10;;;;;;4984287;28;20117;-89
2023/07/09 12:34:14;;;;;;;10.82;5.70;;;31.40;91.90;;;;;;5000533;28;20017;-89
2023/07/09 12:36:44;;;;;;;8.05;5.57;;;31.40;92.20;;;;;;5000350;28;20092;-90
2023/07/09 12:39:12;;;;;;;8.07;5.60;;;31.40;92.10;;;;;;5000968;28;20045;-90
2023/07/09 12:41:44;;;;;;;9.50;5.95;;;31.40;91.90;;;;;;5000379;28;20493;-90
2023/07/09 12:44:17;;;;;;;11.77;5.50;;;31.40;91.90;;;;;;5000519;28;20077;-90
2023/07/09 12:46:44;;;;;;;11.70;5.30;;;31.40;92.00;;;;;;5000417;28;20160;-90